Terminal Aerodrome Forecast
Issued by NWS Grand Forks, ND

Home | Current Version | Previous Version | Text Only | Print | Product List | Glossary On
Versions: 1 2 3 4 5 6 7 8 9 10 11 12 13 14 15 16 17 18 19 20 21 22 23 24 25 26 27 28
753
FTUS43 KFGF 161733 AAB
TAFFAR
TAF AMD
KFAR 161733Z 1618/1718 18004KT P6SM SCT010 BKN025
      TEMPO 1619/1623 BKN010
     FM170200 00000KT P6SM BKN045
     FM170400 00000KT P6SM BKN030
     FM170600 20004KT P6SM BKN020
     FM171200 21004KT P6SM BKN150=

USA.gov is the U.S. government's official web portal to all federal, state and local government web resources and services.